createdAt,value
2022-10-13T00:01:08.762Z,100301.09
2022-10-13T00:03:38.463Z,100298.41
2022-10-13T00:06:08.361Z,100299.72
2022-10-13T00:08:36.935Z,100303.78
2022-10-13T00:11:14.538Z,100299.00
2022-10-13T00:13:43.458Z,100301.34
2022-10-13T00:16:12.463Z,100301.91
2022-10-13T00:18:40.490Z,100304.19
2022-10-13T00:21:10.055Z,100301.84
2022-10-13T00:23:37.977Z,100292.34
2022-10-13T00:26:08.141Z,100290.94
2022-10-13T00:28:36.404Z,100295.50
2022-10-13T00:31:04.480Z,100292.53
2022-10-13T00:33:32.135Z,100287.53
2022-10-13T00:36:00.127Z,100285.09
2022-10-13T00:38:27.767Z,100290.12
2022-10-13T00:40:56.268Z,100289.84
2022-10-13T00:43:26.958Z,100286.69
2022-10-13T00:45:54.961Z,100285.91
2022-10-13T00:48:26.573Z,100286.12
2022-10-13T00:50:56.838Z,100283.22
2022-10-13T00:53:30.767Z,100279.84
2022-10-13T00:55:59.121Z,100288.22
2022-10-13T00:58:27.270Z,100288.69
2022-10-13T01:00:55.012Z,100290.91
2022-10-13T01:03:23.238Z,100288.75
2022-10-13T01:05:52.879Z,100284.53
2022-10-13T01:08:20.930Z,100285.47
2022-10-13T01:11:13.629Z,100283.69
2022-10-13T01:13:50.580Z,100282.53
2022-10-13T01:16:40.377Z,100278.34
2022-10-13T01:19:29.963Z,100283.09
2022-10-13T01:22:22.648Z,100283.78
2022-10-13T01:25:24.096Z,100280.50
2022-10-13T01:28:04.858Z,100279.81
2022-10-13T01:30:37.728Z,100279.59
2022-10-13T01:33:31.056Z,100277.72
2022-10-13T01:36:16.048Z,100273.81
2022-10-13T01:38:53.129Z,100281.53
2022-10-13T01:41:27.618Z,100282.28
2022-10-13T01:44:03.298Z,100282.38
2022-10-13T01:46:33.021Z,100280.22
2022-10-13T01:49:04.216Z,100274.13
2022-10-13T01:51:33.005Z,100273.97
2022-10-13T01:54:05.777Z,100282.84
2022-10-13T01:56:33.369Z,100271.19
2022-10-13T01:59:05.361Z,100265.09
2022-10-13T02:01:33.926Z,100271.25
2022-10-13T02:04:10.380Z,100270.81
2022-10-13T02:06:57.293Z,100272.41
2022-10-13T02:09:36.131Z,100274.53
2022-10-13T02:12:10.523Z,100268.41
2022-10-13T02:14:41.243Z,100255.09
2022-10-13T02:17:09.262Z,100263.50
2022-10-13T02:19:39.984Z,100264.16
2022-10-13T02:22:09.858Z,100258.84
2022-10-13T02:24:37.501Z,100253.06
2022-10-13T02:27:06.020Z,100255.75
2022-10-13T02:29:34.538Z,100252.50
2022-10-13T02:32:02.233Z,100254.37
2022-10-13T02:34:29.839Z,100256.12
2022-10-13T02:36:57.704Z,100261.50
2022-10-13T02:39:25.553Z,100260.13
2022-10-13T02:41:53.151Z,100257.16
2022-10-13T02:44:21.152Z,100252.78
2022-10-13T02:46:48.795Z,100249.59
2022-10-13T02:49:16.583Z,100256.88
2022-10-13T02:51:44.492Z,100257.41
2022-10-13T02:54:12.037Z,100259.81
2022-10-13T02:56:39.584Z,100262.03
2022-10-13T02:59:07.632Z,100260.84
2022-10-13T03:01:35.237Z,100255.62
2022-10-13T03:04:02.815Z,100252.84
2022-10-13T03:06:30.698Z,100254.81
2022-10-13T03:08:58.857Z,100258.09
2022-10-13T03:11:26.566Z,100250.16
2022-10-13T03:13:54.487Z,100256.63
2022-10-13T03:16:22.505Z,100262.66
2022-10-13T03:18:50.072Z,100256.94
2022-10-13T03:21:18.088Z,100264.31
2022-10-13T03:23:45.733Z,100259.56
2022-10-13T03:26:13.439Z,100265.25
2022-10-13T03:28:41.504Z,100266.97
2022-10-13T03:31:11.180Z,100262.62
2022-10-13T03:33:40.453Z,100262.91
2022-10-13T03:36:08.453Z,100269.44
2022-10-13T03:38:36.157Z,100269.25
2022-10-13T03:41:08.760Z,100271.84
2022-10-13T03:43:36.767Z,100274.87
2022-10-13T03:46:05.723Z,100267.19
2022-10-13T03:48:34.924Z,100270.41
2022-10-13T03:51:07.431Z,100267.66
2022-10-13T03:53:35.360Z,100269.47
2022-10-13T03:56:04.180Z,100266.31
2022-10-13T03:58:34.688Z,100257.63
2022-10-13T04:01:04.332Z,100265.16
2022-10-13T04:03:33.061Z,100265.44
2022-10-13T04:06:01.942Z,100258.13
2022-10-13T04:08:30.600Z,100264.22
2022-10-13T04:11:03.660Z,100259.97
2022-10-13T04:13:31.774Z,100259.22
2022-10-13T04:16:08.866Z,100257.03
2022-10-13T04:18:38.997Z,100261.69
2022-10-13T04:21:12.243Z,100258.19
2022-10-13T04:23:40.075Z,100248.88
2022-10-13T04:26:07.694Z,100257.91
2022-10-13T04:28:35.862Z,100254.44
2022-10-13T04:31:03.689Z,100258.09
2022-10-13T04:33:31.650Z,100254.53
2022-10-13T04:35:59.587Z,100258.84
2022-10-13T04:38:27.086Z,100249.28
2022-10-13T04:40:54.653Z,100259.75
2022-10-13T04:43:23.289Z,100253.59
2022-10-13T04:45:51.461Z,100251.44
2022-10-13T04:48:19.547Z,100248.19
2022-10-13T04:50:47.558Z,100248.28
2022-10-13T04:53:19.275Z,100256.88
2022-10-13T04:55:54.115Z,100256.59
2022-10-13T04:58:23.618Z,100252.94
2022-10-13T05:00:52.158Z,100249.56
2022-10-13T05:03:19.961Z,100251.78
2022-10-13T05:05:47.549Z,100251.91
2022-10-13T05:08:15.423Z,100249.88
2022-10-13T05:10:43.027Z,100253.13
2022-10-13T05:13:10.739Z,100248.28
2022-10-13T05:15:39.199Z,100253.78
2022-10-13T05:18:06.873Z,100249.34
2022-10-13T05:20:34.504Z,100255.16
2022-10-13T05:23:02.471Z,100256.69
2022-10-13T05:25:33.706Z,100254.50
2022-10-13T05:28:03.090Z,100259.38
2022-10-13T05:30:30.785Z,100255.53
2022-10-13T05:33:01.511Z,100253.06
2022-10-13T05:35:29.419Z,100260.63
2022-10-13T05:37:57.203Z,100259.88
2022-10-13T05:40:24.738Z,100250.91
2022-10-13T05:42:56.100Z,100250.78
2022-10-13T05:45:23.790Z,100256.28
2022-10-13T05:47:51.717Z,100254.84
2022-10-13T05:50:19.695Z,100250.13
2022-10-13T05:52:47.214Z,100252.62
2022-10-13T05:55:16.226Z,100260.53
2022-10-13T05:57:45.939Z,100262.47
2022-10-13T06:00:15.563Z,100258.56
2022-10-13T06:02:53.406Z,100261.53
2022-10-13T06:05:22.858Z,100264.09
2022-10-13T06:07:51.811Z,100260.94
2022-10-13T06:10:19.686Z,100270.50
2022-10-13T06:12:47.327Z,100271.53
2022-10-13T06:15:15.332Z,100270.03
2022-10-13T06:17:42.969Z,100267.19
2022-10-13T06:20:11.354Z,100268.38
2022-10-13T06:22:39.511Z,100272.78
2022-10-13T06:25:07.935Z,100270.28
2022-10-13T06:27:35.595Z,100265.97
2022-10-13T06:30:04.227Z,100268.06
2022-10-13T06:32:31.944Z,100275.19
2022-10-13T06:34:59.575Z,100273.25
2022-10-13T06:37:27.731Z,100281.63
2022-10-13T06:39:58.417Z,100281.53
2022-10-13T06:42:25.994Z,100287.63
2022-10-13T06:45:00.102Z,100285.00
2022-10-13T06:47:27.697Z,100290.16
2022-10-13T06:49:55.304Z,100290.53
2022-10-13T06:52:23.301Z,100283.38
2022-10-13T06:54:50.974Z,100283.84
2022-10-13T06:57:18.642Z,100288.34
2022-10-13T06:59:46.476Z,100288.56
2022-10-13T07:02:13.997Z,100293.75
2022-10-13T07:04:41.504Z,100295.56
2022-10-13T07:07:09.377Z,100284.47
2022-10-13T07:09:37.061Z,100285.72
2022-10-13T07:12:05.628Z,100284.50
2022-10-13T07:14:33.924Z,100290.47
2022-10-13T07:17:01.679Z,100287.34
2022-10-13T07:19:29.405Z,100286.38
2022-10-13T07:21:57.279Z,100283.75
2022-10-13T07:24:25.349Z,100285.06
2022-10-13T07:26:52.903Z,100281.63
2022-10-13T07:29:21.567Z,100281.91
2022-10-13T07:31:49.204Z,100280.03
2022-10-13T07:34:16.789Z,100286.41
2022-10-13T07:36:44.704Z,100281.28
2022-10-13T07:39:12.427Z,100285.28
2022-10-13T07:41:39.989Z,100286.12
2022-10-13T07:44:07.909Z,100290.44
2022-10-13T07:46:35.551Z,100282.94
2022-10-13T07:49:03.474Z,100288.91
2022-10-13T07:51:31.404Z,100282.69
2022-10-13T07:53:58.989Z,100285.25
2022-10-13T07:56:26.569Z,100290.63
2022-10-13T07:58:54.649Z,100287.50
2022-10-13T08:01:22.834Z,100285.88
2022-10-13T08:03:55.281Z,100287.56
2022-10-13T08:06:23.442Z,100284.19
2022-10-13T08:08:52.855Z,100289.66
2022-10-13T08:11:21.466Z,100284.37
2022-10-13T08:13:50.706Z,100278.34
2022-10-13T08:16:22.247Z,100285.44
2022-10-13T08:18:49.985Z,100277.97
2022-10-13T08:21:57.018Z,100279.66
2022-10-13T08:24:07.918Z,100270.34
2022-10-13T08:26:35.474Z,100268.94
2022-10-13T08:29:20.734Z,100270.59
2022-10-13T08:31:53.924Z,100267.87
2022-10-13T08:34:23.451Z,100275.53
2022-10-13T08:36:52.307Z,100269.88
2022-10-13T08:39:21.436Z,100273.91
2022-10-13T08:41:49.751Z,100267.72
2022-10-13T08:45:02.669Z,100265.22
2022-10-13T08:47:34.275Z,100260.09
2022-10-13T08:50:11.728Z,100271.06
2022-10-13T08:52:54.359Z,100257.75
2022-10-13T08:55:28.943Z,100266.75
2022-10-13T08:57:56.884Z,100263.38
2022-10-13T09:00:27.559Z,100256.34
2022-10-13T09:02:59.368Z,100258.41
2022-10-13T09:05:40.531Z,100267.94
2022-10-13T09:08:15.522Z,100261.09
2022-10-13T09:10:51.164Z,100258.53
2022-10-13T09:13:20.044Z,100261.41
2022-10-13T09:15:49.182Z,100260.34
2022-10-13T09:18:17.563Z,100261.13
2022-10-13T09:20:45.176Z,100255.31
2022-10-13T09:23:20.876Z,100254.94
2022-10-13T09:25:51.017Z,100258.59
2022-10-13T09:28:23.859Z,100247.44
2022-10-13T09:31:03.486Z,100257.00
2022-10-13T09:33:35.274Z,100255.75
2022-10-13T09:36:02.931Z,100252.56
2022-10-13T09:38:30.955Z,100251.56
2022-10-13T09:41:04.764Z,100252.25
2022-10-13T09:43:40.134Z,100252.53
2022-10-13T09:46:50.810Z,100255.56
2022-10-13T09:49:25.358Z,100244.44
2022-10-13T09:52:17.696Z,100243.16
2022-10-13T09:54:47.391Z,100250.72
2022-10-13T09:57:38.221Z,100244.63
2022-10-13T10:00:14.203Z,100231.72
2022-10-13T10:02:46.761Z,100232.63
2022-10-13T10:05:22.034Z,100235.44
2022-10-13T10:07:50.712Z,100237.44
2022-10-13T10:10:40.130Z,100230.75
2022-10-13T10:13:12.412Z,100227.03
2022-10-13T10:16:06.110Z,100223.87
2022-10-13T10:18:42.586Z,100217.72
2022-10-13T10:21:45.166Z,100222.75
2022-10-13T10:24:15.988Z,100215.03
2022-10-13T10:26:55.421Z,100208.72
2022-10-13T10:29:29.438Z,100198.03
2022-10-13T10:32:27.370Z,100198.25
2022-10-13T10:35:20.899Z,100195.06
2022-10-13T10:38:06.514Z,100192.25
2022-10-13T10:40:35.479Z,100197.03
2022-10-13T10:43:28.076Z,100187.13
2022-10-13T10:45:57.734Z,100183.97
2022-10-13T10:48:46.782Z,100187.72
2022-10-13T10:51:15.219Z,100174.84
2022-10-13T10:54:15.851Z,100179.41
2022-10-13T10:57:15.189Z,100176.72
2022-10-13T11:00:09.986Z,100165.09
2022-10-13T11:02:44.641Z,100161.06
2022-10-13T11:05:14.036Z,100164.75
2022-10-13T11:07:42.461Z,100162.41
2022-10-13T11:10:10.088Z,100164.34
2022-10-13T11:12:48.937Z,100154.78
2022-10-13T11:15:31.567Z,100151.28
2022-10-13T11:17:59.231Z,100144.31
2022-10-13T11:20:27.018Z,100133.84
2022-10-13T11:23:00.415Z,100137.22
2022-10-13T11:25:43.091Z,100134.19
2022-10-13T11:28:40.097Z,100135.78
2022-10-13T11:31:14.369Z,100132.09
2022-10-13T11:33:41.971Z,100124.19
2022-10-13T11:36:28.377Z,100133.00
2022-10-13T11:39:06.274Z,100123.97
2022-10-13T11:41:54.369Z,100127.88
2022-10-13T11:44:35.315Z,100117.50
2022-10-13T11:47:16.724Z,100116.84
2022-10-13T11:49:58.982Z,100113.00
2022-10-13T11:52:51.719Z,100103.69
2022-10-13T11:55:49.219Z,100102.72
2022-10-13T11:58:26.344Z,100095.00
2022-10-13T12:01:04.874Z,100096.38
2022-10-13T12:03:34.577Z,100102.81
2022-10-13T12:06:04.851Z,100088.37
2022-10-13T12:08:33.160Z,100089.94
2022-10-13T12:11:00.999Z,100087.50
2022-10-13T12:13:34.350Z,100089.50
2022-10-13T12:16:05.012Z,100084.44
2022-10-13T12:18:35.344Z,100082.31
2022-10-13T12:21:04.342Z,100068.22
2022-10-13T12:23:32.843Z,100067.59
2022-10-13T12:26:00.909Z,100070.38
2022-10-13T12:28:43.018Z,100067.59
2022-10-13T12:31:18.853Z,100065.69
2022-10-13T12:33:56.044Z,100069.19
2022-10-13T12:36:32.227Z,100066.81
2022-10-13T12:39:06.574Z,100062.59
2022-10-13T12:41:40.129Z,100057.66
2022-10-13T12:44:17.449Z,100053.87
2022-10-13T12:46:50.678Z,100057.97
2022-10-13T12:49:27.996Z,100057.69
2022-10-13T12:52:32.246Z,100046.19
2022-10-13T12:55:00.173Z,100048.91
2022-10-13T12:57:32.433Z,100054.88
2022-10-13T13:00:01.587Z,100055.13
2022-10-13T13:02:31.532Z,100048.56
2022-10-13T13:04:59.519Z,100043.78
2022-10-13T13:07:30.258Z,100037.84
2022-10-13T13:10:00.000Z,100037.31
2022-10-13T13:12:28.607Z,100037.09
2022-10-13T13:14:57.123Z,100035.91
2022-10-13T13:17:53.397Z,100037.03
2022-10-13T13:20:26.219Z,100036.28
2022-10-13T13:22:54.494Z,100036.44
2022-10-13T13:25:24.973Z,100030.53
2022-10-13T13:27:55.583Z,100030.87
2022-10-13T13:30:24.286Z,100023.59
2022-10-13T13:32:52.226Z,100020.53
2022-10-13T13:35:20.090Z,100014.66
2022-10-13T13:37:50.046Z,100020.63
2022-10-13T13:40:25.494Z,100020.16
2022-10-13T13:42:54.300Z,100016.56
2022-10-13T13:45:23.868Z,100014.38
2022-10-13T13:47:52.084Z,100009.81
2022-10-13T13:50:24.183Z,100009.28
2022-10-13T13:52:57.342Z,100013.25
2022-10-13T13:55:26.147Z,100003.91
2022-10-13T13:57:53.717Z,100007.97
2022-10-13T14:00:22.321Z,100018.66
2022-10-13T14:02:51.310Z,100005.28
2022-10-13T14:05:18.929Z,100010.22
2022-10-13T14:07:46.479Z,100011.72
2022-10-13T14:10:14.745Z,100000.31
2022-10-13T14:12:42.934Z,100004.84
2022-10-13T14:15:10.695Z,100004.69
2022-10-13T14:17:38.631Z,100003.31
2022-10-13T14:20:06.756Z,100006.66
2022-10-13T14:22:38.574Z,100000.94
2022-10-13T14:25:07.872Z,99999.16
2022-10-13T14:27:35.730Z,99996.13
2022-10-13T14:30:05.613Z,100003.66
2022-10-13T14:32:33.911Z,99993.34
2022-10-13T14:35:01.643Z,99991.09
2022-10-13T14:37:33.247Z,99985.34
2022-10-13T14:40:02.304Z,99986.13
2022-10-13T14:42:30.200Z,99988.03
2022-10-13T14:44:57.840Z,99989.19
2022-10-13T14:47:25.807Z,99985.91
2022-10-13T14:49:53.583Z,99989.31
2022-10-13T14:52:21.425Z,99986.69
2022-10-13T14:54:49.438Z,99991.34
2022-10-13T14:57:17.139Z,99985.22
2022-10-13T14:59:48.571Z,99985.91
2022-10-13T15:02:16.616Z,99981.50
2022-10-13T15:04:50.499Z,99983.53
2022-10-13T15:07:18.835Z,99980.22
2022-10-13T15:09:52.895Z,99983.69
2022-10-13T15:12:22.033Z,99988.22
2022-10-13T15:14:50.316Z,99985.28
2022-10-13T15:17:21.094Z,99983.81
2022-10-13T15:19:49.251Z,99981.44
2022-10-13T15:22:16.945Z,99981.94
2022-10-13T15:24:44.526Z,99979.69
2022-10-13T15:27:12.546Z,99980.44
2022-10-13T15:29:40.430Z,99977.69
2022-10-13T15:32:11.227Z,99984.66
2022-10-13T15:34:39.588Z,99985.84
2022-10-13T15:37:07.384Z,99977.63
2022-10-13T15:39:34.951Z,99978.16
2022-10-13T15:42:04.530Z,99977.78
2022-10-13T15:44:40.720Z,99983.13
2022-10-13T15:47:20.240Z,99976.97
2022-10-13T15:49:47.818Z,99975.56
2022-10-13T15:52:15.424Z,99983.03
2022-10-13T15:54:43.573Z,99979.88
2022-10-13T15:57:11.251Z,99969.09
2022-10-13T15:59:38.907Z,99973.34
2022-10-13T16:02:08.819Z,99969.06
2022-10-13T16:04:37.713Z,99962.87
2022-10-13T16:07:05.543Z,99970.53
2022-10-13T16:09:33.117Z,99960.84
2022-10-13T16:12:01.694Z,99968.88
2022-10-13T16:14:29.388Z,99966.00
2022-10-13T16:16:59.100Z,99970.19
2022-10-13T16:19:27.059Z,99969.87
2022-10-13T16:21:54.722Z,99968.22
2022-10-13T16:24:22.673Z,99970.00
2022-10-13T16:26:50.585Z,99970.16
2022-10-13T16:29:18.165Z,99969.66
2022-10-13T16:31:45.781Z,99970.63
2022-10-13T16:34:13.703Z,99970.63
2022-10-13T16:36:44.377Z,99969.16
2022-10-13T16:39:12.062Z,99969.00
2022-10-13T16:41:40.650Z,99972.66
2022-10-13T16:44:08.255Z,99971.19
2022-10-13T16:46:37.772Z,99973.09
2022-10-13T16:49:05.658Z,99974.19
2022-10-13T16:51:33.313Z,99980.69
2022-10-13T16:54:04.103Z,99971.75
2022-10-13T16:56:32.518Z,99979.06
2022-10-13T16:59:02.557Z,99979.66
2022-10-13T17:01:31.419Z,99972.53
2022-10-13T17:03:59.919Z,99978.66
2022-10-13T17:06:28.680Z,99978.63
2022-10-13T17:09:00.578Z,99971.75
2022-10-13T17:11:30.007Z,99970.16
2022-10-13T17:13:59.041Z,99972.19
2022-10-13T17:16:27.977Z,99976.19
2022-10-13T17:18:56.321Z,99975.81
2022-10-13T17:21:32.480Z,99977.31
2022-10-13T17:24:00.595Z,99978.22
2022-10-13T17:26:28.581Z,99981.41
2022-10-13T17:28:56.396Z,99981.84
2022-10-13T17:31:24.369Z,99971.50
2022-10-13T17:33:52.378Z,99979.91
2022-10-13T17:36:25.599Z,99979.91
2022-10-13T17:38:55.423Z,99971.81
2022-10-13T17:41:24.271Z,99968.25
2022-10-13T17:43:52.479Z,99965.53
2022-10-13T17:46:40.817Z,99967.88
2022-10-13T17:49:10.972Z,99966.78
2022-10-13T17:51:42.849Z,99968.63
2022-10-13T17:54:15.621Z,99966.91
2022-10-13T17:56:44.647Z,99964.97
2022-10-13T17:59:12.665Z,99975.88
2022-10-13T18:01:43.669Z,99969.66
2022-10-13T18:04:14.009Z,99967.28
2022-10-13T18:06:42.740Z,99968.69
2022-10-13T18:09:16.292Z,99966.47
2022-10-13T18:11:49.702Z,99972.66
2022-10-13T18:14:19.871Z,99967.66
2022-10-13T18:16:50.256Z,99965.38
2022-10-13T18:19:18.157Z,99967.28
2022-10-13T18:21:45.803Z,99966.12
2022-10-13T18:24:13.970Z,99966.75
2022-10-13T18:26:41.703Z,99969.59
2022-10-13T18:29:11.569Z,99978.25
2022-10-13T18:31:40.953Z,99965.84
2022-10-13T18:34:12.808Z,99969.06
2022-10-13T18:36:46.292Z,99962.87
2022-10-13T18:39:19.590Z,99957.81
2022-10-13T18:41:49.716Z,99955.50
2022-10-13T18:44:17.557Z,99955.63
2022-10-13T18:46:45.394Z,99961.13
2022-10-13T18:49:15.004Z,99958.13
2022-10-13T18:51:43.953Z,99959.53
2022-10-13T18:54:12.155Z,99958.75
2022-10-13T18:56:40.074Z,99956.66
2022-10-13T18:59:08.264Z,99955.75
2022-10-13T19:01:37.963Z,99957.84
2022-10-13T19:04:06.588Z,99956.66
2022-10-13T19:06:34.261Z,99953.59
2022-10-13T19:09:05.490Z,99959.16
2022-10-13T19:11:35.571Z,99952.31
2022-10-13T19:14:04.200Z,99949.50
2022-10-13T19:16:32.230Z,99950.59
2022-10-13T19:19:00.746Z,99942.31
2022-10-13T19:21:28.442Z,99947.50
2022-10-13T19:23:59.114Z,99946.59
2022-10-13T19:26:28.392Z,99943.28
2022-10-13T19:28:59.361Z,99950.03
2022-10-13T19:31:28.888Z,99947.53
2022-10-13T19:33:57.497Z,99948.84
2022-10-13T19:36:37.862Z,99949.84
2022-10-13T19:39:11.727Z,99947.84
2022-10-13T19:41:39.603Z,99948.44
2022-10-13T19:44:07.698Z,99948.53
2022-10-13T19:46:41.913Z,99946.94
2022-10-13T19:49:11.545Z,99947.44
2022-10-13T19:51:44.435Z,99941.66
2022-10-13T19:54:12.736Z,99951.44
2022-10-13T19:56:46.419Z,99942.84
2022-10-13T19:59:16.433Z,99948.31
2022-10-13T20:01:44.003Z,99946.31
2022-10-13T20:04:14.372Z,99952.38
2022-10-13T20:06:44.340Z,99947.75
2022-10-13T20:09:12.024Z,99942.16
2022-10-13T20:11:40.006Z,99946.25
2022-10-13T20:14:07.642Z,99949.94
2022-10-13T20:16:35.394Z,99942.75
2022-10-13T20:19:03.865Z,99946.69
2022-10-13T20:21:31.477Z,99945.81
2022-10-13T20:23:59.308Z,99947.84
2022-10-13T20:26:27.311Z,99947.75
2022-10-13T20:28:55.108Z,99946.41
2022-10-13T20:31:23.011Z,99952.63
2022-10-13T20:33:58.353Z,99943.00
2022-10-13T20:36:28.804Z,99944.78
2022-10-13T20:38:56.769Z,99938.06
2022-10-13T20:41:29.806Z,99944.66
2022-10-13T20:43:59.722Z,99941.78
2022-10-13T20:46:27.762Z,99936.94
2022-10-13T20:49:12.996Z,99944.03
2022-10-13T20:51:42.176Z,99937.22
2022-10-13T20:54:10.749Z,99941.78
2022-10-13T20:56:38.841Z,99939.97
2022-10-13T20:59:09.494Z,99935.19
2022-10-13T21:01:37.770Z,99944.28
2022-10-13T21:04:05.501Z,99941.38
2022-10-13T21:06:33.840Z,99938.66
2022-10-13T21:09:02.066Z,99946.38
2022-10-13T21:11:29.721Z,99938.28
2022-10-13T21:13:57.718Z,99940.09
2022-10-13T21:16:27.947Z,99943.97
2022-10-13T21:18:56.929Z,99937.09
2022-10-13T21:21:30.505Z,99932.31
2022-10-13T21:23:59.827Z,99935.09
2022-10-13T21:26:29.346Z,99928.09
2022-10-13T21:28:57.211Z,99931.69
2022-10-13T21:31:25.452Z,99934.59
2022-10-13T21:33:54.187Z,99928.03
2022-10-13T21:36:32.579Z,99932.03
2022-10-13T21:39:05.087Z,99937.47
2022-10-13T21:41:33.431Z,99936.69
2022-10-13T21:44:01.663Z,99933.13
2022-10-13T21:46:31.987Z,99934.44
2022-10-13T21:49:02.106Z,99936.44
2022-10-13T21:51:35.385Z,99929.38
2022-10-13T21:54:06.585Z,99925.34
2022-10-13T21:56:35.404Z,99928.72
2022-10-13T21:59:04.820Z,99925.09
2022-10-13T22:01:33.138Z,99930.31
2022-10-13T22:04:02.376Z,99936.03
2022-10-13T22:06:31.350Z,99935.81
2022-10-13T22:09:00.957Z,99937.91
2022-10-13T22:11:30.923Z,99940.72
2022-10-13T22:13:59.275Z,99929.22
2022-10-13T22:16:33.195Z,99927.38
2022-10-13T22:19:01.717Z,99930.56
2022-10-13T22:21:32.036Z,99928.56
2022-10-13T22:24:02.262Z,99922.91
2022-10-13T22:26:32.172Z,99929.47
2022-10-13T22:29:01.457Z,99932.34
2022-10-13T22:31:29.170Z,99929.38
2022-10-13T22:33:57.159Z,99927.75
2022-10-13T22:36:25.991Z,99925.78
2022-10-13T22:38:55.767Z,99926.16
2022-10-13T22:41:23.953Z,99920.28
2022-10-13T22:43:53.351Z,99916.19
2022-10-13T22:46:23.120Z,99917.81
2022-10-13T22:48:51.202Z,99904.03
2022-10-13T22:51:21.081Z,99904.53
2022-10-13T22:53:49.607Z,99904.63
2022-10-13T22:56:20.248Z,99907.06
2022-10-13T22:58:58.199Z,99909.94
2022-10-13T23:01:26.469Z,99904.03
2022-10-13T23:03:57.135Z,99907.22
2022-10-13T23:06:27.746Z,99907.22
2022-10-13T23:08:56.309Z,99905.75
2022-10-13T23:11:23.995Z,99903.84
2022-10-13T23:13:51.697Z,99913.44
2022-10-13T23:16:22.784Z,99907.44
2022-10-13T23:18:50.518Z,99903.47
2022-10-13T23:21:23.817Z,99903.34
2022-10-13T23:24:00.539Z,99900.69
2022-10-13T23:26:29.076Z,99903.84
2022-10-13T23:28:57.893Z,99890.91
2022-10-13T23:31:26.376Z,99892.56
2022-10-13T23:33:54.467Z,99896.78
2022-10-13T23:36:25.202Z,99883.62
2022-10-13T23:39:03.288Z,99888.66
2022-10-13T23:41:31.163Z,99893.34
2022-10-13T23:43:58.981Z,99895.19
2022-10-13T23:46:26.604Z,99898.22
2022-10-13T23:48:55.925Z,99897.41
2022-10-13T23:51:25.274Z,99903.06
2022-10-13T23:53:53.029Z,99900.59
2022-10-13T23:56:21.387Z,99895.94
2022-10-13T23:58:49.321Z,99897.13
